createdAt,value
2023-03-01T00:00:05.561Z,1.27
2023-03-01T00:02:32.265Z,1.24
2023-03-01T00:04:58.812Z,1.23
2023-03-01T00:07:25.330Z,1.24
2023-03-01T00:09:51.893Z,1.22
2023-03-01T00:12:18.453Z,1.20
2023-03-01T00:14:44.964Z,1.16
2023-03-01T00:17:11.577Z,1.12
2023-03-01T00:19:38.407Z,1.10
2023-03-01T00:22:04.963Z,1.05
2023-03-01T00:24:31.531Z,1.04
2023-03-01T00:26:58.075Z,1.03
2023-03-01T00:29:25.614Z,1.04
2023-03-01T00:31:52.713Z,1.00
2023-03-01T00:34:19.320Z,0.95
2023-03-01T00:36:45.921Z,0.90
2023-03-01T00:39:15.463Z,0.86
2023-03-01T00:41:43.062Z,0.81
2023-03-01T00:44:10.479Z,0.79
2023-03-01T00:46:37.184Z,0.77
2023-03-01T00:49:05.522Z,0.77
2023-03-01T00:51:32.747Z,0.76
2023-03-01T00:54:02.665Z,0.74
2023-03-01T00:56:30.871Z,0.76
2023-03-01T00:58:57.787Z,0.75
2023-03-01T01:01:30.718Z,0.76
2023-03-01T01:04:00.849Z,0.74
2023-03-01T01:06:30.679Z,0.71
2023-03-01T01:08:57.735Z,0.68
2023-03-01T01:11:26.504Z,0.67
2023-03-01T01:13:53.133Z,0.62
2023-03-01T01:16:21.699Z,0.54
2023-03-01T01:18:48.368Z,0.50
2023-03-01T01:21:17.343Z,0.46
2023-03-01T01:23:45.329Z,0.43
2023-03-01T01:26:18.066Z,0.41
2023-03-01T01:28:44.605Z,0.43
2023-03-01T01:31:11.300Z,0.46
2023-03-01T01:33:38.548Z,0.44
2023-03-01T01:36:09.386Z,0.43
2023-03-01T01:38:37.582Z,0.42
2023-03-01T01:41:05.872Z,0.39
2023-03-01T01:43:40.125Z,0.35
2023-03-01T01:46:28.114Z,0.29
2023-03-01T01:49:08.469Z,0.20
2023-03-01T01:51:43.304Z,0.15
2023-03-01T01:54:18.392Z,0.12
2023-03-01T01:56:52.163Z,0.11
2023-03-01T01:59:18.878Z,0.09
2023-03-01T02:01:45.527Z,0.07
2023-03-01T02:04:12.329Z,0.03
2023-03-01T02:06:42.886Z,0.01
2023-03-01T02:09:14.151Z,0.04
2023-03-01T02:11:42.157Z,0.07
2023-03-01T02:14:08.712Z,0.09
2023-03-01T02:16:36.022Z,0.13
2023-03-01T02:19:06.289Z,0.14
2023-03-01T02:21:39.438Z,0.18
2023-03-01T02:24:25.390Z,0.21
2023-03-01T02:26:55.810Z,0.25
2023-03-01T02:29:23.751Z,0.28
2023-03-01T02:31:52.447Z,0.28
2023-03-01T02:34:26.211Z,0.26
2023-03-01T02:37:00.961Z,0.27
2023-03-01T02:39:33.711Z,0.28
2023-03-01T02:42:01.177Z,0.30
2023-03-01T02:44:27.753Z,0.30
2023-03-01T02:46:57.816Z,0.29
2023-03-01T02:49:26.799Z,0.28
2023-03-01T02:52:09.006Z,0.22
2023-03-01T02:54:58.510Z,0.18
2023-03-01T02:57:28.477Z,0.19
2023-03-01T02:59:58.425Z,0.18
2023-03-01T03:02:37.375Z,0.13
2023-03-01T03:05:31.288Z,0.09
2023-03-01T03:08:00.131Z,0.04
2023-03-01T03:10:30.082Z,0.02
2023-03-01T03:13:05.828Z,-0.01
2023-03-01T03:15:33.695Z,0.01
2023-03-01T03:18:00.250Z,-0.04
2023-03-01T03:20:29.209Z,-0.08
2023-03-01T03:22:59.460Z,-0.13
2023-03-01T03:25:28.509Z,-0.16
2023-03-01T03:27:57.787Z,-0.16
2023-03-01T03:30:27.520Z,-0.15
2023-03-01T03:32:54.315Z,-0.16
2023-03-01T03:35:25.415Z,-0.17
2023-03-01T03:38:06.778Z,-0.20
2023-03-01T03:40:41.702Z,-0.23
2023-03-01T03:43:11.832Z,-0.20
2023-03-01T03:45:38.474Z,-0.17
2023-03-01T03:48:07.565Z,-0.16
2023-03-01T03:50:34.631Z,-0.16
2023-03-01T03:53:02.766Z,-0.14
2023-03-01T03:55:31.641Z,-0.14
2023-03-01T03:58:02.981Z,-0.18
2023-03-01T04:00:29.802Z,-0.22
2023-03-01T04:02:57.588Z,-0.24
2023-03-01T04:05:24.946Z,-0.20
2023-03-01T04:08:01.936Z,-0.22
2023-03-01T04:10:42.016Z,-0.26
2023-03-01T04:13:13.636Z,-0.27
2023-03-01T04:15:41.106Z,-0.30
2023-03-01T04:18:09.775Z,-0.31
2023-03-01T04:20:36.865Z,-0.32
2023-03-01T04:23:12.144Z,-0.30
2023-03-01T04:25:41.193Z,-0.30
2023-03-01T04:28:09.122Z,-0.31
2023-03-01T04:30:36.720Z,-0.32
2023-03-01T04:33:05.445Z,-0.33
2023-03-01T04:35:33.031Z,-0.32
2023-03-01T04:37:59.686Z,-0.34
2023-03-01T04:40:26.342Z,-0.38
2023-03-01T04:42:52.976Z,-0.38
2023-03-01T04:45:20.102Z,-0.39
2023-03-01T04:47:47.761Z,-0.37
2023-03-01T04:50:17.702Z,-0.35
2023-03-01T04:52:45.204Z,-0.33
2023-03-01T04:55:12.408Z,-0.33
2023-03-01T04:57:39.179Z,-0.31
2023-03-01T05:00:20.965Z,-0.30
2023-03-01T05:02:56.083Z,-0.30
2023-03-01T05:05:32.481Z,-0.32
2023-03-01T05:08:01.892Z,-0.31
2023-03-01T05:10:30.674Z,-0.29
2023-03-01T05:13:00.836Z,-0.28
2023-03-01T05:15:29.159Z,-0.27
2023-03-01T05:17:59.659Z,-0.27
2023-03-01T05:20:27.412Z,-0.27
2023-03-01T05:22:56.739Z,-0.24
2023-03-01T05:25:23.561Z,-0.26
2023-03-01T05:27:50.112Z,-0.24
2023-03-01T05:30:17.705Z,-0.24
2023-03-01T05:32:49.567Z,-0.22
2023-03-01T05:35:19.155Z,-0.22
2023-03-01T05:37:48.431Z,-0.19
2023-03-01T05:40:18.625Z,-0.20
2023-03-01T05:42:53.050Z,-0.21
2023-03-01T05:45:19.817Z,-0.20
2023-03-01T05:47:47.858Z,-0.20
2023-03-01T05:50:26.806Z,-0.24
2023-03-01T05:52:59.518Z,-0.25
2023-03-01T05:55:28.173Z,0.24
2023-03-01T05:57:55.806Z,1.60
2023-03-01T06:00:25.817Z,2.63
2023-03-01T06:02:55.252Z,3.24
2023-03-01T06:05:22.294Z,3.02
2023-03-01T06:07:49.390Z,2.51
2023-03-01T06:10:19.402Z,2.09
2023-03-01T06:12:45.980Z,1.69
2023-03-01T06:15:14.270Z,1.38
2023-03-01T06:17:42.593Z,1.17
2023-03-01T06:20:12.898Z,1.00
2023-03-01T06:22:40.152Z,0.89
2023-03-01T06:25:07.837Z,0.78
2023-03-01T06:27:34.437Z,0.68
2023-03-01T06:30:00.947Z,0.63
2023-03-01T06:32:27.614Z,0.57
2023-03-01T06:34:54.220Z,0.48
2023-03-01T06:37:20.884Z,0.49
2023-03-01T06:39:47.423Z,0.63
2023-03-01T06:42:14.003Z,0.87
2023-03-01T06:44:40.498Z,1.52
2023-03-01T06:47:07.022Z,1.88
2023-03-01T06:49:33.603Z,2.14
2023-03-01T06:52:00.162Z,2.37
2023-03-01T06:54:26.857Z,2.20
2023-03-01T06:56:53.372Z,1.94
2023-03-01T06:59:20.177Z,1.71
2023-03-01T07:01:46.813Z,1.54
2023-03-01T07:04:14.544Z,1.39
2023-03-01T07:06:41.147Z,1.34
2023-03-01T07:09:07.696Z,1.25
2023-03-01T07:11:34.227Z,1.18
2023-03-01T07:14:01.146Z,1.13
2023-03-01T07:16:28.011Z,1.11
2023-03-01T07:18:55.160Z,1.10
2023-03-01T07:21:21.870Z,1.08
2023-03-01T07:23:49.478Z,1.12
2023-03-01T07:26:16.019Z,1.14
2023-03-01T07:28:42.533Z,1.17
2023-03-01T07:31:09.231Z,1.18
2023-03-01T07:33:35.768Z,1.20
2023-03-01T07:36:04.594Z,1.24
2023-03-01T07:38:31.472Z,1.28
2023-03-01T07:41:03.182Z,1.30
2023-03-01T07:43:30.879Z,1.32
2023-03-01T07:46:04.845Z,1.36
2023-03-01T07:48:32.669Z,1.44
2023-03-01T07:51:00.787Z,1.52
2023-03-01T07:53:27.858Z,1.58
2023-03-01T07:56:10.546Z,1.61
2023-03-01T07:58:39.580Z,1.65
2023-03-01T08:01:07.894Z,1.70
2023-03-01T08:03:35.753Z,1.75
2023-03-01T08:06:08.110Z,1.83
2023-03-01T08:08:35.784Z,1.91
2023-03-01T08:11:04.189Z,2.01
2023-03-01T08:13:31.641Z,2.09
2023-03-01T08:16:03.802Z,2.17
2023-03-01T08:18:30.416Z,2.26
2023-03-01T08:20:56.976Z,2.36
2023-03-01T08:23:23.554Z,2.47
2023-03-01T08:25:50.279Z,2.49
2023-03-01T08:28:16.797Z,2.53
2023-03-01T08:30:43.310Z,2.61
2023-03-01T08:33:09.908Z,2.71
2023-03-01T08:35:36.519Z,2.83
2023-03-01T08:38:03.068Z,2.93
2023-03-01T08:40:29.655Z,3.01
2023-03-01T08:42:56.207Z,3.08
2023-03-01T08:45:22.840Z,3.12
2023-03-01T08:47:53.615Z,3.13
2023-03-01T08:50:20.304Z,3.15
2023-03-01T08:52:46.954Z,3.18
2023-03-01T08:55:14.506Z,3.26
2023-03-01T08:57:41.032Z,3.35
2023-03-01T09:00:09.748Z,3.48
2023-03-01T09:02:36.451Z,3.53
2023-03-01T09:05:03.083Z,3.50
2023-03-01T09:07:29.810Z,3.44
2023-03-01T09:09:56.702Z,3.38
2023-03-01T09:12:23.504Z,3.31
2023-03-01T09:14:50.124Z,3.28
2023-03-01T09:17:16.757Z,3.32
2023-03-01T09:19:43.339Z,3.40
2023-03-01T09:22:09.829Z,3.48
2023-03-01T09:24:36.400Z,3.57
2023-03-01T09:27:03.873Z,3.66
2023-03-01T09:29:30.478Z,3.75
2023-03-01T09:31:57.436Z,3.81
2023-03-01T09:34:24.519Z,3.89
2023-03-01T09:36:52.173Z,3.94
2023-03-01T09:39:19.464Z,3.97
2023-03-01T09:42:05.245Z,4.00
2023-03-01T09:44:40.889Z,4.01
2023-03-01T09:47:17.345Z,4.04
2023-03-01T09:49:49.724Z,4.09
2023-03-01T09:52:30.347Z,4.10
2023-03-01T09:54:59.614Z,4.17
2023-03-01T09:57:39.363Z,4.33
2023-03-01T10:00:19.573Z,4.46
2023-03-01T10:03:10.318Z,4.59
2023-03-01T10:05:48.135Z,4.57
2023-03-01T10:08:32.273Z,4.66
2023-03-01T10:10:59.794Z,4.84
2023-03-01T10:13:50.140Z,4.91
2023-03-01T10:16:25.206Z,5.01
2023-03-01T10:18:59.993Z,5.11
2023-03-01T10:21:30.309Z,5.14
2023-03-01T10:24:08.932Z,5.24
2023-03-01T10:26:35.491Z,5.31
2023-03-01T10:29:10.953Z,5.36
2023-03-01T10:31:44.126Z,5.38
2023-03-01T10:34:29.553Z,5.44
2023-03-01T10:37:10.157Z,5.50
2023-03-01T10:39:36.861Z,5.58
2023-03-01T10:42:06.815Z,5.63
2023-03-01T10:44:36.230Z,5.76
2023-03-01T10:47:02.851Z,5.77
2023-03-01T10:49:29.362Z,5.76
2023-03-01T10:51:56.029Z,5.73
2023-03-01T10:54:29.472Z,5.79
2023-03-01T10:57:02.367Z,5.95
2023-03-01T10:59:34.865Z,6.07
2023-03-01T11:02:23.403Z,6.17
2023-03-01T11:05:14.043Z,6.34
2023-03-01T11:07:49.897Z,6.39
2023-03-01T11:10:21.957Z,6.42
2023-03-01T11:12:48.628Z,6.47
2023-03-01T11:15:27.865Z,6.61
2023-03-01T11:18:03.101Z,6.75
2023-03-01T11:20:40.073Z,6.87
2023-03-01T11:23:13.506Z,6.94
2023-03-01T11:25:48.808Z,7.10
2023-03-01T11:28:18.768Z,7.26
2023-03-01T11:31:05.593Z,7.38
2023-03-01T11:33:49.456Z,7.51
2023-03-01T11:36:34.043Z,7.59
2023-03-01T11:39:24.393Z,7.73
2023-03-01T11:42:09.322Z,7.75
2023-03-01T11:44:44.196Z,7.73
2023-03-01T11:47:34.899Z,7.65
2023-03-01T11:50:20.603Z,7.61
2023-03-01T11:52:53.266Z,7.67
2023-03-01T11:55:58.532Z,7.72
2023-03-01T11:58:40.050Z,7.83
2023-03-01T12:01:17.033Z,8.01
2023-03-01T12:04:03.302Z,8.12
2023-03-01T12:06:38.804Z,8.19
2023-03-01T12:09:14.513Z,8.17
2023-03-01T12:11:41.408Z,8.03
2023-03-01T12:14:11.058Z,8.03
2023-03-01T12:17:08.273Z,8.13
2023-03-01T12:19:49.722Z,8.26
2023-03-01T12:22:42.014Z,8.27
2023-03-01T12:25:17.243Z,8.14
2023-03-01T12:28:02.311Z,8.19
2023-03-01T12:30:39.522Z,8.35
2023-03-01T12:33:11.915Z,8.47
2023-03-01T12:36:13.891Z,8.49
2023-03-01T12:38:51.381Z,8.57
2023-03-01T12:41:46.971Z,8.51
2023-03-01T12:44:32.128Z,8.40
2023-03-01T12:47:13.602Z,8.39
2023-03-01T12:49:49.142Z,8.43
2023-03-01T12:52:36.740Z,8.60
2023-03-01T12:55:17.456Z,8.80
2023-03-01T12:58:25.676Z,8.86
2023-03-01T13:01:04.833Z,8.99
2023-03-01T13:04:12.303Z,9.10
2023-03-01T13:07:00.352Z,9.17
2023-03-01T13:09:47.248Z,9.11
2023-03-01T13:12:45.315Z,9.16
2023-03-01T13:15:24.301Z,9.32
2023-03-01T13:17:53.390Z,9.47
2023-03-01T13:20:24.228Z,9.53
2023-03-01T13:23:07.350Z,9.54
2023-03-01T13:25:42.025Z,9.49
2023-03-01T13:28:49.505Z,9.45
2023-03-01T13:31:16.008Z,9.63
2023-03-01T13:33:53.296Z,9.80
2023-03-01T13:36:30.050Z,9.80
2023-03-01T13:38:58.469Z,9.82
2023-03-01T13:41:40.458Z,9.92
2023-03-01T13:44:44.376Z,10.16
2023-03-01T13:47:11.097Z,10.46
2023-03-01T13:49:58.746Z,10.76
2023-03-01T13:52:45.473Z,11.16
2023-03-01T13:55:14.855Z,11.55
2023-03-01T13:57:45.667Z,11.82
2023-03-01T14:00:34.462Z,11.94
2023-03-01T14:03:15.941Z,12.33
2023-03-01T14:06:13.175Z,12.63
2023-03-01T14:08:44.479Z,12.95
2023-03-01T14:11:32.777Z,13.27
2023-03-01T14:14:11.170Z,13.36
2023-03-01T14:17:17.588Z,13.24
2023-03-01T14:19:47.964Z,13.49
2023-03-01T14:22:35.327Z,13.86
2023-03-01T14:25:06.038Z,13.99
2023-03-01T14:27:43.184Z,14.17
2023-03-01T14:30:19.926Z,13.96
2023-03-01T14:33:03.205Z,13.77
2023-03-01T14:35:32.603Z,13.88
2023-03-01T14:37:59.515Z,13.94
2023-03-01T14:40:28.483Z,14.11
2023-03-01T14:42:59.480Z,14.24
2023-03-01T14:45:29.079Z,14.36
2023-03-01T14:48:00.316Z,14.26
2023-03-01T14:50:33.182Z,14.22
2023-03-01T14:53:05.592Z,14.10
2023-03-01T14:55:42.329Z,14.29
2023-03-01T14:58:20.203Z,14.27
2023-03-01T15:00:52.137Z,14.50
2023-03-01T15:03:25.816Z,14.84
2023-03-01T15:05:53.830Z,15.09
2023-03-01T15:08:24.812Z,15.19
2023-03-01T15:11:03.401Z,15.20
2023-03-01T15:13:35.358Z,15.29
2023-03-01T15:16:19.824Z,15.12
2023-03-01T15:18:56.313Z,15.02
2023-03-01T15:21:25.646Z,15.09
2023-03-01T15:24:18.836Z,14.91
2023-03-01T15:27:07.935Z,14.73
2023-03-01T15:29:41.414Z,14.52
2023-03-01T15:32:25.230Z,14.25
2023-03-01T15:34:52.388Z,14.23
2023-03-01T15:37:49.388Z,14.24
2023-03-01T15:40:32.415Z,14.30
2023-03-01T15:43:00.903Z,14.13
2023-03-01T15:45:29.769Z,14.15
2023-03-01T15:47:58.913Z,14.13
2023-03-01T15:50:38.187Z,14.02
2023-03-01T15:53:13.012Z,13.87
2023-03-01T15:55:39.568Z,13.77
2023-03-01T15:58:23.609Z,13.69
2023-03-01T16:01:01.110Z,14.02
2023-03-01T16:03:29.151Z,13.95
2023-03-01T16:05:55.908Z,13.34
2023-03-01T16:08:22.489Z,12.59
2023-03-01T16:10:52.066Z,11.96
2023-03-01T16:13:18.835Z,11.45
2023-03-01T16:15:45.722Z,11.07
2023-03-01T16:18:12.897Z,10.69
2023-03-01T16:20:40.348Z,10.34
2023-03-01T16:23:09.100Z,10.08
2023-03-01T16:25:36.776Z,9.83
2023-03-01T16:28:09.720Z,9.61
2023-03-01T16:30:37.518Z,9.42
2023-03-01T16:33:19.199Z,9.27
2023-03-01T16:35:51.632Z,9.08
2023-03-01T16:38:18.274Z,8.96
2023-03-01T16:40:48.536Z,8.86
2023-03-01T16:43:15.197Z,8.76
2023-03-01T16:45:45.505Z,8.63
2023-03-01T16:48:12.858Z,8.55
2023-03-01T16:50:39.607Z,8.42
2023-03-01T16:53:06.724Z,8.34
2023-03-01T16:55:34.400Z,8.26
2023-03-01T16:58:01.140Z,8.21
2023-03-01T17:00:27.886Z,8.14
2023-03-01T17:02:54.806Z,8.06
2023-03-01T17:05:23.330Z,7.98
2023-03-01T17:07:49.931Z,7.91
2023-03-01T17:10:16.504Z,7.83
2023-03-01T17:12:43.027Z,7.75
2023-03-01T17:15:10.820Z,7.67
2023-03-01T17:17:37.395Z,7.59
2023-03-01T17:20:04.988Z,7.50
2023-03-01T17:22:31.675Z,7.44
2023-03-01T17:24:58.268Z,7.38
2023-03-01T17:27:25.574Z,7.34
2023-03-01T17:29:52.404Z,7.27
2023-03-01T17:32:19.147Z,7.20
2023-03-01T17:34:46.536Z,7.12
2023-03-01T17:37:13.114Z,7.07
2023-03-01T17:39:39.644Z,7.03
2023-03-01T17:42:06.673Z,6.97
2023-03-01T17:44:36.403Z,6.94
2023-03-01T17:47:04.189Z,6.90
2023-03-01T17:49:31.518Z,6.86
2023-03-01T17:51:58.123Z,6.80
2023-03-01T17:54:25.082Z,6.75
2023-03-01T17:56:51.963Z,6.70
2023-03-01T17:59:18.949Z,6.66
2023-03-01T18:01:46.165Z,6.63
2023-03-01T18:04:13.269Z,6.57
2023-03-01T18:06:41.009Z,6.52
2023-03-01T18:09:08.099Z,6.48
2023-03-01T18:11:35.614Z,6.44
2023-03-01T18:14:02.685Z,6.38
2023-03-01T18:16:31.793Z,6.35
2023-03-01T18:18:58.873Z,6.30
2023-03-01T18:21:25.623Z,6.26
2023-03-01T18:23:52.756Z,6.22
2023-03-01T18:26:22.197Z,6.16
2023-03-01T18:28:51.586Z,6.11
2023-03-01T18:31:21.815Z,6.09
2023-03-01T18:33:49.496Z,6.08
2023-03-01T18:36:19.627Z,6.06
2023-03-01T18:38:47.004Z,6.03
2023-03-01T18:41:13.567Z,5.99
2023-03-01T18:43:40.207Z,5.94
2023-03-01T18:46:06.968Z,5.90
2023-03-01T18:48:33.542Z,5.88
2023-03-01T18:51:11.583Z,5.84
2023-03-01T18:53:38.574Z,5.84
2023-03-01T18:56:07.362Z,5.82
2023-03-01T18:58:34.109Z,5.80
2023-03-01T19:01:04.196Z,5.78
2023-03-01T19:03:31.407Z,5.77
2023-03-01T19:06:00.842Z,5.76
2023-03-01T19:08:29.440Z,5.75
2023-03-01T19:11:01.862Z,5.73
2023-03-01T19:13:28.593Z,5.72
2023-03-01T19:16:08.596Z,5.70
2023-03-01T19:18:36.804Z,5.68
2023-03-01T19:21:04.832Z,5.67
2023-03-01T19:23:35.029Z,5.64
2023-03-01T19:26:03.486Z,5.63
2023-03-01T19:28:30.784Z,5.61
2023-03-01T19:31:02.572Z,5.58
2023-03-01T19:33:31.073Z,5.57
2023-03-01T19:35:58.978Z,5.56
2023-03-01T19:38:26.509Z,5.55
2023-03-01T19:40:55.083Z,5.52
2023-03-01T19:43:22.418Z,5.49
2023-03-01T19:45:55.699Z,5.45
2023-03-01T19:48:22.818Z,5.43
2023-03-01T19:50:51.847Z,5.39
2023-03-01T19:53:19.057Z,5.36
2023-03-01T19:55:46.042Z,5.31
2023-03-01T19:58:12.598Z,5.26
2023-03-01T20:00:44.180Z,5.20
2023-03-01T20:03:10.785Z,5.15
2023-03-01T20:05:37.775Z,5.10
2023-03-01T20:08:05.307Z,5.08
2023-03-01T20:10:34.124Z,5.04
2023-03-01T20:13:04.047Z,5.00
2023-03-01T20:15:31.038Z,4.97
2023-03-01T20:17:57.594Z,4.93
2023-03-01T20:20:24.160Z,4.90
2023-03-01T20:22:50.751Z,4.84
2023-03-01T20:25:17.596Z,4.77
2023-03-01T20:27:47.617Z,4.68
2023-03-01T20:30:15.700Z,4.60
2023-03-01T20:32:42.373Z,4.52
2023-03-01T20:35:09.613Z,4.45
2023-03-01T20:37:36.466Z,4.37
2023-03-01T20:40:03.980Z,4.28
2023-03-01T20:42:30.660Z,4.20
2023-03-01T20:44:57.201Z,4.15
2023-03-01T20:47:23.879Z,4.12
2023-03-01T20:49:51.760Z,4.08
2023-03-01T20:52:18.693Z,4.05
2023-03-01T20:54:45.187Z,4.03
2023-03-01T20:57:12.118Z,3.97
2023-03-01T20:59:38.686Z,3.94
2023-03-01T21:02:05.257Z,3.91
2023-03-01T21:04:31.865Z,3.89
2023-03-01T21:06:58.422Z,3.84
2023-03-01T21:09:24.961Z,3.81
2023-03-01T21:11:51.659Z,3.76
2023-03-01T21:14:18.448Z,3.74
2023-03-01T21:16:47.950Z,3.74
2023-03-01T21:19:14.653Z,3.73
2023-03-01T21:21:41.251Z,3.73
2023-03-01T21:24:10.534Z,3.70
2023-03-01T21:26:37.701Z,3.66
2023-03-01T21:29:04.299Z,3.60
2023-03-01T21:31:34.823Z,3.56
2023-03-01T21:34:07.006Z,3.52
2023-03-01T21:36:35.238Z,3.50
2023-03-01T21:39:02.480Z,3.46
2023-03-01T21:41:32.472Z,3.42
2023-03-01T21:44:01.049Z,3.39
2023-03-01T21:46:30.895Z,3.36
2023-03-01T21:48:58.885Z,3.37
2023-03-01T21:51:28.176Z,3.39
2023-03-01T21:53:55.818Z,3.39
2023-03-01T21:56:26.150Z,3.37
2023-03-01T21:58:53.219Z,3.40
2023-03-01T22:01:25.722Z,3.42
2023-03-01T22:03:52.459Z,3.43
2023-03-01T22:06:24.696Z,3.42
2023-03-01T22:08:53.645Z,3.39
2023-03-01T22:11:20.344Z,3.39
2023-03-01T22:13:49.612Z,3.36
2023-03-01T22:16:17.323Z,3.29
2023-03-01T22:18:43.900Z,3.24
2023-03-01T22:21:11.743Z,3.18
2023-03-01T22:23:40.055Z,3.12
2023-03-01T22:26:08.452Z,3.09
2023-03-01T22:28:35.458Z,3.06
2023-03-01T22:31:05.703Z,3.02
2023-03-01T22:33:32.481Z,2.98
2023-03-01T22:35:59.164Z,2.95
2023-03-01T22:38:25.715Z,2.92
2023-03-01T22:41:00.176Z,2.84
2023-03-01T22:43:28.245Z,2.79
2023-03-01T22:45:54.983Z,2.75
2023-03-01T22:48:21.851Z,2.72
2023-03-01T22:50:49.255Z,2.70
2023-03-01T22:53:16.894Z,2.69
2023-03-01T22:55:44.219Z,2.65
2023-03-01T22:58:10.992Z,2.65
2023-03-01T23:00:37.583Z,2.66
2023-03-01T23:03:04.254Z,2.62
2023-03-01T23:05:30.905Z,2.60
2023-03-01T23:07:57.468Z,2.57
2023-03-01T23:10:24.055Z,2.53
2023-03-01T23:12:50.598Z,2.49
2023-03-01T23:15:17.283Z,2.47
2023-03-01T23:17:43.802Z,2.46
2023-03-01T23:20:11.044Z,2.44
2023-03-01T23:22:38.213Z,2.42
2023-03-01T23:25:05.607Z,2.41
2023-03-01T23:27:32.176Z,2.40
2023-03-01T23:29:59.423Z,2.36
2023-03-01T23:32:25.996Z,2.34
2023-03-01T23:34:52.559Z,2.35
2023-03-01T23:37:19.137Z,2.34
2023-03-01T23:39:45.677Z,2.36
2023-03-01T23:42:12.228Z,2.35
2023-03-01T23:44:40.846Z,2.32
2023-03-01T23:47:07.485Z,2.31
2023-03-01T23:49:34.093Z,2.29
2023-03-01T23:52:01.627Z,2.27
2023-03-01T23:54:28.473Z,2.25
2023-03-01T23:56:55.076Z,2.23
2023-03-01T23:59:23.726Z,2.21
